Time;durP1;ratioP1;P1;durP2;ratioP2;P2;SDS_P1;SDS_P2;PMS_P1;PMS_P2;Temp;Humidity;BMP_temperature;BMP_pressure;BME280_temperature;BME280_humidity;BME280_pressure;Samples;Min_cycle;Max_cycle;Signal;HPM_P1;HPM_P2
2023/07/21 00:01:24;;;;;;;0.43;0.43;;;;;;;19.49;61.08;99256.56;5093986;28;20044;-60
2023/07/21 00:03:53;;;;;;;0.60;0.60;;;;;;;19.49;60.97;99260.88;5093458;28;20397;-60
2023/07/21 00:06:24;;;;;;;0.63;0.55;;;;;;;19.45;61.02;99260.19;5094173;28;20622;-60
2023/07/21 00:08:54;;;;;;;0.55;0.55;;;;;;;19.31;61.39;99252.16;5093649;28;20506;-60
2023/07/21 00:11:23;;;;;;;0.65;0.65;;;;;;;19.24;61.93;99263.69;5093895;28;20494;-60
2023/07/21 00:13:55;;;;;;;1.10;0.80;;;;;;;19.03;62.32;99259.38;5093553;28;20036;-60
2023/07/21 00:16:27;;;;;;;0.82;0.75;;;;;;;18.88;62.85;99255.72;5093835;28;20497;-59
2023/07/21 00:18:57;;;;;;;0.68;0.68;;;;;;;18.86;63.23;99259.28;5093644;28;20060;-60
2023/07/21 00:21:26;;;;;;;0.77;0.75;;;;;;;18.89;63.58;99259.13;5094108;28;20040;-60
2023/07/21 00:23:55;;;;;;;0.60;0.60;;;;;;;18.98;63.33;99259.56;5093479;28;20117;-60
2023/07/21 00:26:24;;;;;;;0.90;0.90;;;;;;;18.89;63.42;99251.34;5093762;28;20044;-59
2023/07/21 00:28:56;;;;;;;0.45;0.45;;;;;;;18.73;64.00;99253.75;5094030;28;20052;-60
2023/07/21 00:31:26;;;;;;;1.10;1.00;;;;;;;18.64;64.44;99265.28;5093781;28;20043;-60
2023/07/21 00:33:54;;;;;;;0.60;0.60;;;;;;;18.69;64.16;99255.59;5093336;28;20078;-60
2023/07/21 00:36:23;;;;;;;0.70;0.70;;;;;;;18.74;64.09;99245.06;5092139;28;20041;-59
2023/07/21 00:38:53;;;;;;;0.45;0.45;;;;;;;18.83;63.25;99255.06;5093383;28;20109;-60
2023/07/21 00:41:23;;;;;;;0.80;0.63;;;;;;;18.91;62.74;99247.00;5093204;28;20123;-60
2023/07/21 00:43:52;;;;;;;0.93;0.93;;;;;;;18.95;62.54;99248.53;5093655;28;20051;-60
2023/07/21 00:46:23;;;;;;;0.97;0.87;;;;;;;18.93;62.45;99250.34;5092652;28;20036;-60
2023/07/21 00:48:53;;;;;;;1.40;1.10;;;;;;;18.95;62.31;99248.53;5093608;28;20101;-59
2023/07/21 00:51:22;;;;;;;1.05;0.98;;;;;;;18.94;62.45;99247.69;5092123;28;20044;-60
2023/07/21 00:53:52;;;;;;;0.63;0.50;;;;;;;18.73;63.07;99259.75;5091992;28;20036;-60
2023/07/21 00:56:22;;;;;;;9.18;0.73;;;;;;;18.62;63.42;99259.34;5093168;28;20067;-60
2023/07/21 00:58:53;;;;;;;0.80;0.80;;;;;;;18.48;63.89;99256.47;5093477;28;20056;-59
2023/07/21 01:01:24;;;;;;;0.55;0.55;;;;;;;18.42;64.49;99254.09;5093135;28;20086;-59
2023/07/21 01:03:53;;;;;;;1.05;0.98;;;;;;;18.46;64.28;99253.09;5093454;28;20047;-60
2023/07/21 01:06:26;;;;;;;0.60;0.60;;;;;;;18.49;64.52;99250.41;5093431;28;20046;-59
2023/07/21 01:08:58;;;;;;;0.68;0.68;;;;;;;18.56;63.93;99256.16;5093259;28;20048;-59
2023/07/21 01:11:29;;;;;;;0.82;0.82;;;;;;;18.48;64.17;99259.03;5093418;28;20408;-60
2023/07/21 01:14:02;;;;;;;0.50;0.50;;;;;;;18.46;64.19;99254.84;5091818;28;20051;-59
2023/07/21 01:16:37;;;;;;;0.50;0.50;;;;;;;18.36;64.65;99259.50;5092983;28;20047;-60
2023/07/21 01:19:13;;;;;;;1.00;0.90;;;;;;;18.24;64.83;99259.97;5095397;28;20052;-60
2023/07/21 01:21:48;;;;;;;0.60;0.60;;;;;;;18.13;65.17;99256.97;5095705;28;20449;-60
2023/07/21 01:24:24;;;;;;;0.65;0.65;;;;;;;18.06;65.29;99252.94;5096574;28;20041;-60
2023/07/21 01:26:57;;;;;;;1.02;0.65;;;;;;;18.07;65.30;99257.19;5096508;28;20040;-59
2023/07/21 01:29:28;;;;;;;0.60;0.60;;;;;;;18.19;64.71;99256.72;5095613;28;20450;-59
2023/07/21 01:31:59;;;;;;;0.80;0.80;;;;;;;18.28;64.06;99246.06;5096983;28;20071;-59
2023/07/21 01:34:29;;;;;;;0.85;0.70;;;;;;;18.36;63.39;99244.00;5096229;28;20046;-59
2023/07/21 01:36:59;;;;;;;;;;;;;;;18.39;63.02;99243.03;5095489;28;20051;-59
2023/07/21 01:39:31;;;;;;;0.82;0.80;;;;;;;18.40;63.11;99245.56;5096235;28;19920;-60
2023/07/21 01:42:01;;;;;;;0.40;0.40;;;;;;;18.42;62.85;99235.16;5095114;28;20128;-60
2023/07/21 01:44:30;;;;;;;0.98;0.93;;;;;;;18.43;63.13;99240.25;5096168;28;20489;-60
2023/07/21 01:46:59;;;;;;;1.80;0.80;;;;;;;18.42;63.18;99243.75;5096643;28;20047;-60
2023/07/21 01:49:28;;;;;;;0.70;0.70;;;;;;;18.38;63.54;99239.59;5094845;28;20490;-60
2023/07/21 01:51:58;;;;;;;0.60;0.60;;;;;;;18.38;63.43;99242.19;5096058;28;20215;-60
2023/07/21 01:54:31;;;;;;;0.63;0.63;;;;;;;18.32;63.48;99239.84;5096286;28;20094;-60
2023/07/21 01:57:04;;;;;;;0.57;0.57;;;;;;;18.23;63.68;99241.94;5094683;28;20428;-60
2023/07/21 01:59:34;;;;;;;0.60;0.60;;;;;;;18.18;64.11;99244.72;5094885;28;20375;-60
2023/07/21 02:02:03;;;;;;;0.57;0.57;;;;;;;18.23;63.88;99250.56;5094646;28;20119;-59
2023/07/21 02:04:32;;;;;;;0.88;0.88;;;;;;;18.23;63.70;99247.97;5094968;28;20078;-59
2023/07/21 02:07:01;;;;;;;0.70;0.70;;;;;;;18.27;63.27;99248.66;5094505;28;20545;-60
2023/07/21 02:09:29;;;;;;;0.50;0.50;;;;;;;18.23;63.37;99240.22;5095625;28;20486;-59
2023/07/21 02:11:59;;;;;;;0.88;0.88;;;;;;;18.17;63.89;99243.03;5094691;28;20295;-59
2023/07/21 02:14:56;;;;;;;0.50;0.50;;;;;;;18.16;64.20;99236.19;5092701;28;20052;-60
2023/07/21 02:17:25;;;;;;;1.30;0.65;;;;;;;18.15;64.06;99234.50;5094580;28;20524;-60
2023/07/21 02:19:54;;;;;;;0.60;0.60;;;;;;;18.17;63.69;99237.84;5094401;28;20040;-60
2023/07/21 02:22:23;;;;;;;1.27;1.17;;;;;;;18.21;63.85;99238.59;5094257;28;20044;-60
2023/07/21 02:24:52;;;;;;;;;;;;;;;18.23;63.66;99229.88;5095773;28;20097;-60
2023/07/21 02:27:21;;;;;;;0.85;0.75;;;;;;;18.25;63.60;99235.81;5093921;28;19927;-60
2023/07/21 02:29:50;;;;;;;0.60;0.60;;;;;;;18.21;63.53;99243.75;5095938;28;20029;-60
2023/07/21 02:32:21;;;;;;;0.80;0.73;;;;;;;18.04;63.80;99239.25;5094043;28;20051;-59
2023/07/21 02:34:51;;;;;;;0.60;0.60;;;;;;;18.07;64.06;99241.69;5095108;28;20036;-59
2023/07/21 02:37:20;;;;;;;0.70;0.70;;;;;;;18.08;64.57;99249.38;5093917;28;20043;-59
2023/07/21 02:39:49;;;;;;;0.70;0.70;;;;;;;18.14;64.12;99248.28;5094162;28;20037;-60
2023/07/21 02:42:18;;;;;;;0.70;0.70;;;;;;;18.09;64.27;99250.25;5095331;28;20055;-59
2023/07/21 02:44:47;;;;;;;0.93;0.82;;;;;;;18.14;64.15;99248.28;5093820;28;20300;-59
2023/07/21 02:47:17;;;;;;;1.03;0.97;;;;;;;18.02;64.44;99248.75;5095194;28;20033;-59
2023/07/21 02:49:47;;;;;;;0.60;0.60;;;;;;;17.97;64.52;99261.03;5094908;28;20048;-60
2023/07/21 02:52:16;;;;;;;0.63;0.63;;;;;;;18.02;64.40;99259.94;5094771;28;20048;-60
2023/07/21 02:54:50;;;;;;;0.82;0.82;;;;;;;18.02;64.69;99259.09;5095230;28;20501;-60
2023/07/21 02:57:19;;;;;;;0.60;0.60;;;;;;;18.06;64.16;99255.50;5094793;28;20067;-59
2023/07/21 02:59:48;;;;;;;0.50;0.50;;;;;;;18.04;63.80;99252.16;5094642;28;20040;-60
2023/07/21 03:02:25;;;;;;;1.00;0.90;;;;;;;17.96;64.04;99249.00;5093760;28;20052;-59
2023/07/21 03:04:56;;;;;;;1.15;0.93;;;;;;;18.01;63.69;99257.44;5093474;28;20040;-59
2023/07/21 03:07:26;;;;;;;0.30;0.30;;;;;;;18.02;63.85;99259.09;5093671;28;20098;-60
2023/07/21 03:10:03;;;;;;;0.63;0.63;;;;;;;18.00;63.92;99258.31;5094495;28;20052;-60
2023/07/21 03:12:36;;;;;;;0.60;0.60;;;;;;;18.04;63.61;99262.47;5094864;28;20124;-59
2023/07/21 03:15:06;;;;;;;1.67;1.00;;;;;;;18.08;63.87;99258.88;5094331;28;20032;-59
2023/07/21 03:17:50;;;;;;;1.02;0.90;;;;;;;18.13;63.83;99264.72;5094634;28;20368;-60
2023/07/21 03:20:20;;;;;;;0.60;0.60;;;;;;;18.15;63.91;99265.50;5093101;28;20128;-60
2023/07/21 03:22:49;;;;;;;0.70;0.70;;;;;;;18.03;64.17;99258.19;5094849;28;20047;-59
2023/07/21 03:25:18;;;;;;;0.40;0.40;;;;;;;17.97;64.26;99263.63;5093392;28;20040;-59
2023/07/21 03:27:47;;;;;;;0.80;0.80;;;;;;;18.09;64.56;99261.38;5094141;28;20409;-59
2023/07/21 03:30:20;;;;;;;0.70;0.70;;;;;;;18.18;64.53;99264.53;5094565;28;20070;-59
2023/07/21 03:32:57;;;;;;;0.68;0.68;;;;;;;18.22;64.32;99264.34;5094076;28;20051;-59
2023/07/21 03:35:31;;;;;;;1.10;1.00;;;;;;;18.27;64.46;99254.69;5094392;28;20146;-59
2023/07/21 03:38:00;;;;;;;0.55;0.55;;;;;;;18.29;64.44;99258.06;5093548;28;20127;-59
2023/07/21 03:40:29;;;;;;;1.27;1.17;;;;;;;18.38;64.48;99257.69;5093087;28;20135;-59
2023/07/21 03:42:59;;;;;;;0.70;0.70;;;;;;;18.40;64.27;99247.31;5094195;28;20043;-59
2023/07/21 03:45:29;;;;;;;0.50;0.50;;;;;;;18.36;64.16;99254.31;5094793;28;20405;-60
2023/07/21 03:47:58;;;;;;;;;;;;;;;18.43;63.86;99255.75;5127733;27;20394;-60
2023/07/21 03:50:30;;;;;;;0.75;0.75;;;;;;;18.50;63.99;99252.06;5093181;28;19924;-59
2023/07/21 03:52:59;;;;;;;0.85;0.85;;;;;;;18.56;63.89;99245.81;5094122;28;20047;-60
2023/07/21 03:55:28;;;;;;;0.65;0.65;;;;;;;18.56;63.47;99253.56;5092794;28;20040;-59
2023/07/21 03:57:59;;;;;;;0.70;0.70;;;;;;;18.56;63.49;99251.00;5093887;28;20048;-60
2023/07/21 04:00:29;;;;;;;0.70;0.67;;;;;;;18.58;63.47;99244.00;5093677;28;20036;-60
2023/07/21 04:02:58;;;;;;;0.43;0.43;;;;;;;18.55;63.29;99247.56;5092583;28;20703;-60
2023/07/21 04:05:26;;;;;;;0.47;0.47;;;;;;;18.46;63.19;99245.34;5092406;28;20051;-60
2023/07/21 04:07:57;;;;;;;0.85;0.65;;;;;;;18.49;63.39;99245.22;5093613;28;20293;-59
2023/07/21 04:10:26;;;;;;;0.50;0.50;;;;;;;18.48;63.30;99243.53;5094159;28;20135;-59
2023/07/21 04:12:56;;;;;;;0.70;0.60;;;;;;;18.50;63.46;99240.91;5092488;28;20127;-60
2023/07/21 04:15:25;;;;;;;0.40;0.40;;;;;;;18.57;63.33;99243.16;5092437;28;20505;-60
2023/07/21 04:17:54;;;;;;;0.60;0.60;;;;;;;18.60;63.04;99243.06;5092450;28;20099;-58
2023/07/21 04:20:23;;;;;;;;;;;;;;;18.64;63.11;99244.59;5094258;28;20439;-60
2023/07/21 04:22:52;;;;;;;0.50;0.50;;;;;;;18.68;62.58;99241.00;5092604;28;20391;-59
2023/07/21 04:25:23;;;;;;;2.83;0.95;;;;;;;18.76;62.66;99243.28;5093422;28;20519;-60
2023/07/21 04:27:55;;;;;;;0.43;0.43;;;;;;;18.86;62.62;99244.56;5093550;28;20052;-60
2023/07/21 04:30:24;;;;;;;0.50;0.50;;;;;;;18.85;62.30;99248.06;5094014;28;20054;-59
2023/07/21 04:32:53;;;;;;;1.60;0.77;;;;;;;18.79;62.22;99239.72;5092719;28;20064;-59
2023/07/21 04:35:22;;;;;;;0.60;0.60;;;;;;;18.81;62.11;99251.69;5126478;28;20757;-60
2023/07/21 04:37:53;;;;;;;1.08;0.98;;;;;;;18.73;62.32;99253.75;5093390;28;20093;-60
2023/07/21 04:40:26;;;;;;;0.60;0.60;;;;;;;18.74;62.46;99248.50;5093542;28;20036;-60
2023/07/21 04:42:59;;;;;;;0.88;0.80;;;;;;;18.82;62.14;99243.03;5093913;28;20048;-60
2023/07/21 04:45:28;;;;;;;0.57;0.57;;;;;;;18.89;62.17;99246.19;5126500;28;20083;-60
2023/07/21 04:48:08;;;;;;;1.33;1.23;;;;;;;18.85;62.05;99248.06;5093279;28;20044;-59
2023/07/21 04:50:42;;;;;;;0.55;0.55;;;;;;;18.83;62.09;99242.13;5095334;28;20054;-59
2023/07/21 04:53:12;;;;;;;1.05;0.80;;;;;;;18.83;62.19;99243.88;5097146;28;20048;-59
2023/07/21 04:55:42;;;;;;;0.52;0.52;;;;;;;18.89;61.91;99243.59;5095952;28;20132;-60
2023/07/21 04:58:13;;;;;;;3.30;1.25;;;;;;;18.92;61.86;99248.66;5096977;28;20131;-60
2023/07/21 05:00:42;;;;;;;1.13;1.00;;;;;;;18.99;61.81;99255.25;5130184;27;20152;-60
2023/07/21 05:03:11;;;;;;;0.90;0.77;;;;;;;19.06;61.70;99251.50;5096239;28;20398;-60
2023/07/21 05:05:41;;;;;;;1.17;0.95;;;;;;;19.07;61.58;99256.63;5097378;28;20050;-60
2023/07/21 05:08:10;;;;;;;0.47;0.47;;;;;;;19.13;61.52;99258.09;5095655;28;20079;-60
2023/07/21 05:10:39;;;;;;;0.70;0.70;;;;;;;19.19;61.26;99257.84;5097127;28;20040;-59
2023/07/21 05:13:13;;;;;;;1.02;0.93;;;;;;;19.22;61.05;99262.88;5095884;28;20056;-60
2023/07/21 05:15:52;;;;;;;0.52;0.52;;;;;;;19.16;61.10;99257.97;5096557;28;20050;-59
2023/07/21 05:18:33;;;;;;;0.90;0.90;;;;;;;19.16;60.99;99248.47;5096752;28;20044;-60
2023/07/21 05:21:13;;;;;;;3.67;0.95;;;;;;;19.15;61.25;99240.75;5096750;28;20393;-60
2023/07/21 05:23:48;;;;;;;0.75;0.70;;;;;;;19.19;61.01;99238.00;5096518;28;20040;-59
2023/07/21 05:26:21;;;;;;;0.60;0.60;;;;;;;19.19;60.93;99247.50;5096784;28;20048;-59
2023/07/21 05:28:55;;;;;;;1.00;0.60;;;;;;;19.30;60.75;99246.13;5096454;28;20089;-60
2023/07/21 05:31:35;;;;;;;2.25;1.42;;;;;;;19.34;60.70;99247.69;5096712;28;20047;-59
2023/07/21 05:34:16;;;;;;;0.50;0.50;;;;;;;19.39;60.69;99239.75;5096658;28;20058;-59
2023/07/21 05:36:46;;;;;;;0.40;0.40;;;;;;;19.43;60.42;99237.88;5096433;28;20050;-60
2023/07/21 05:39:15;;;;;;;0.70;0.70;;;;;;;19.42;60.40;99244.78;5094806;28;20036;-61
2023/07/21 05:41:44;;;;;;;0.80;0.80;;;;;;;19.43;60.48;99267.19;5095000;28;20048;-60
2023/07/21 05:44:15;;;;;;;0.57;0.57;;;;;;;19.40;60.49;99272.50;5096168;28;20398;-59
2023/07/21 05:46:44;;;;;;;0.50;0.50;;;;;;;19.42;60.49;99260.31;5096263;28;20120;-60
2023/07/21 05:49:16;;;;;;;0.50;0.50;;;;;;;19.38;60.38;99258.78;5096318;28;20134;-60
2023/07/21 05:51:46;;;;;;;0.52;0.52;;;;;;;19.36;60.55;99255.44;5096007;28;20054;-59
2023/07/21 05:54:27;;;;;;;0.68;0.63;;;;;;;19.51;60.35;99238.41;5096287;28;20091;-59
2023/07/21 05:56:57;;;;;;;0.60;0.60;;;;;;;19.64;60.28;99214.47;5094612;28;20056;-60
2023/07/21 05:59:34;;;;;;;0.55;0.52;;;;;;;19.76;60.15;99208.72;5095853;28;20044;-60
2023/07/21 06:02:03;;;;;;;0.50;0.50;;;;;;;19.83;59.89;99217.91;5094117;28;20071;-59
2023/07/21 06:04:36;;;;;;;0.88;0.68;;;;;;;19.85;59.53;99218.66;5095718;28;20102;-59
2023/07/21 06:07:29;;;;;;;0.95;0.60;;;;;;;19.89;59.57;99220.19;5087385;28;20048;-60
2023/07/21 06:10:21;;;;;;;0.73;0.70;;;;;;;19.98;59.30;99252.63;5087614;28;20044;-60
2023/07/21 06:13:04;;;;;;;0.60;0.60;;;;;;;20.02;59.48;99267.97;5094616;28;20048;-59
2023/07/21 06:16:00;;;;;;;1.02;0.73;;;;;;;20.15;59.31;99262.22;5062560;28;20060;-60
2023/07/21 06:18:38;;;;;;;;;;;;;;;20.22;59.30;99263.63;5094357;28;20047;-60
2023/07/21 06:21:07;;;;;;;0.90;0.80;;;;;;;20.25;58.92;99273.88;5094233;28;20002;-59
2023/07/21 06:23:36;;;;;;;0.77;0.77;;;;;;;20.31;59.75;99265.81;5095397;28;20118;-60
2023/07/21 06:26:05;;;;;;;0.60;0.60;;;;;;;20.35;59.32;99256.97;5098076;28;20481;-60
2023/07/21 06:28:35;;;;;;;0.50;0.50;;;;;;;20.33;59.18;99249.28;5115669;28;20046;-60
2023/07/21 06:31:06;;;;;;;4.15;2.40;;;;;;;20.40;58.88;99236.84;5115952;28;20043;-60
2023/07/21 06:33:58;;;;;;;4.00;1.80;;;;;;;20.47;58.64;99238.22;5112481;28;20108;-60
2023/07/21 06:36:38;;;;;;;0.57;0.55;;;;;;;20.53;58.46;99237.94;5115763;28;20447;-59
2023/07/21 06:39:17;;;;;;;5.88;1.20;;;;;;;20.61;58.12;99241.03;5115259;28;20043;-60
2023/07/21 06:41:57;;;;;;;0.60;0.60;;;;;;;20.59;58.03;99237.66;5114455;28;20481;-61
2023/07/21 06:44:36;;;;;;;;;;;;;;;20.62;57.80;99253.06;5101733;28;20379;-60
2023/07/21 06:47:30;;;;;;;1.95;0.98;;;;;;;20.66;57.48;99244.22;5092135;28;19926;-60
2023/07/21 06:50:14;;;;;;;2.13;1.40;;;;;;;20.67;57.33;99238.13;5094843;28;20044;-59
2023/07/21 06:52:48;;;;;;;0.77;0.77;;;;;;;20.77;57.12;99231.56;5094861;28;20052;-59
2023/07/21 06:55:21;;;;;;;0.43;0.43;;;;;;;20.87;56.95;99206.00;5094021;28;20040;-60
2023/07/21 06:57:50;;;;;;;;;;;;;;;20.92;56.89;99204.03;5095314;28;20432;-60
2023/07/21 07:00:21;;;;;;;0.77;0.77;;;;;;;20.98;57.06;99209.75;5093483;28;19920;-60
2023/07/21 07:02:52;;;;;;;0.43;0.43;;;;;;;21.11;56.94;99203.06;5099942;28;20096;-60
2023/07/21 07:05:22;;;;;;;0.65;0.60;;;;;;;21.25;56.77;99198.00;5111595;28;20059;-60
2023/07/21 07:07:52;;;;;;;0.40;0.40;;;;;;;21.33;56.46;99206.22;5095619;28;20130;-60
2023/07/21 07:10:22;;;;;;;0.80;0.80;;;;;;;21.43;55.99;99208.34;5094556;28;20056;-60
2023/07/21 07:12:51;;;;;;;0.73;0.73;;;;;;;21.56;56.03;99214.56;5093262;28;20036;-60
2023/07/21 07:15:20;;;;;;;0.40;0.40;;;;;;;21.57;55.77;99211.88;5094725;28;20047;-60
2023/07/21 07:17:51;;;;;;;0.50;0.50;;;;;;;21.57;55.82;99221.44;5092982;28;20044;-60
2023/07/21 07:20:20;;;;;;;3.40;1.15;;;;;;;21.52;55.58;99215.66;5093736;28;20050;-60
2023/07/21 07:22:49;;;;;;;0.77;0.73;;;;;;;21.58;55.77;99223.09;5092676;28;20044;-60
2023/07/21 07:25:18;;;;;;;0.95;0.60;;;;;;;21.59;55.79;99217.00;5092367;28;20037;-60
2023/07/21 07:27:47;;;;;;;0.82;0.73;;;;;;;21.56;55.86;99217.16;5093279;28;20048;-60
2023/07/21 07:30:17;;;;;;;0.43;0.40;;;;;;;21.62;55.79;99211.66;5093971;28;20043;-60
2023/07/21 07:32:45;;;;;;;1.25;1.15;;;;;;;21.63;55.63;99228.91;5104064;28;20135;-60
2023/07/21 07:35:16;;;;;;;0.40;0.40;;;;;;;21.68;55.64;99216.50;5114850;28;20512;-60
2023/07/21 07:37:45;;;;;;;0.70;0.70;;;;;;;21.80;55.44;99218.44;5114549;28;20127;-60
2023/07/21 07:40:14;;;;;;;0.50;0.50;;;;;;;21.82;55.33;99203.59;5114347;28;20054;-60
2023/07/21 07:42:43;;;;;;;0.75;0.75;;;;;;;21.89;55.38;99199.78;5114146;28;20287;-59
2023/07/21 07:45:13;;;;;;;0.50;0.50;;;;;;;22.01;55.35;99204.31;5097929;28;20047;-60
2023/07/21 07:47:44;;;;;;;0.40;0.40;;;;;;;22.05;54.97;99210.19;5092222;28;20142;-61
2023/07/21 07:50:13;;;;;;;0.50;0.50;;;;;;;22.11;55.10;99200.28;5093429;28;20067;-60
2023/07/21 07:52:45;;;;;;;1.85;0.95;;;;;;;22.23;54.84;99204.81;5091751;28;20046;-60
2023/07/21 07:55:15;;;;;;;2.35;0.68;;;;;;;22.31;54.75;99194.84;5093175;28;20051;-60
2023/07/21 07:57:45;;;;;;;0.50;0.50;;;;;;;22.39;54.81;99200.44;5109449;28;20085;-59
2023/07/21 08:00:16;;;;;;;13.40;7.13;;;;;;;22.46;54.83;99199.16;5096525;28;20450;-59
2023/07/21 08:02:45;;;;;;;9.32;3.10;;;;;;;22.53;54.62;99202.25;5093735;28;20392;-62
2023/07/21 08:05:13;;;;;;;9.50;1.77;;;;;;;22.58;54.62;99216.66;5093257;28;20138;-59
2023/07/21 08:07:44;;;;;;;0.45;0.45;;;;;;;22.58;54.38;99221.03;5092889;28;20036;-60
2023/07/21 08:10:13;;;;;;;1.77;1.30;;;;;;;22.55;54.48;99227.28;5093576;28;20040;-59
2023/07/21 08:12:42;;;;;;;0.50;0.50;;;;;;;22.50;54.36;99224.09;5093793;28;20127;-59
2023/07/21 08:15:12;;;;;;;0.85;0.85;;;;;;;22.46;54.41;99240.78;5093519;28;20040;-59
2023/07/21 08:17:40;;;;;;;4.05;1.40;;;;;;;22.40;54.44;99248.94;5092609;28;20051;-59
2023/07/21 08:20:11;;;;;;;0.65;0.55;;;;;;;22.40;54.18;99246.34;5093814;28;20029;-59
2023/07/21 08:22:40;;;;;;;0.45;0.45;;;;;;;22.43;53.88;99238.38;5093499;28;20040;-59
2023/07/21 08:25:10;;;;;;;0.32;0.32;;;;;;;22.51;53.77;99236.16;5095839;28;20044;-60
2023/07/21 08:27:39;;;;;;;0.60;0.60;;;;;;;22.63;53.56;99226.84;5118059;28;20046;-59
2023/07/21 08:30:09;;;;;;;0.40;0.40;;;;;;;22.73;53.38;99224.56;5117915;28;20127;-60
2023/07/21 08:32:42;;;;;;;0.68;0.60;;;;;;;22.85;53.25;99218.63;5117812;28;20043;-59
2023/07/21 08:35:11;;;;;;;0.50;0.50;;;;;;;22.96;52.82;99211.06;5100638;28;20436;-59
2023/07/21 08:37:40;;;;;;;2.70;1.25;;;;;;;23.05;52.20;99210.50;5097387;28;20093;-59
2023/07/21 08:40:12;;;;;;;1.40;0.98;;;;;;;23.08;51.58;99210.34;5097427;28;20123;-59
2023/07/21 08:42:41;;;;;;;0.60;0.60;;;;;;;23.22;51.48;99202.53;5097278;28;20048;-59
2023/07/21 08:45:11;;;;;;;0.70;0.60;;;;;;;23.36;51.61;99201.72;5097444;28;20079;-60
2023/07/21 08:47:41;;;;;;;0.52;0.52;;;;;;;23.44;50.95;99196.91;5097436;28;20393;-60
2023/07/21 08:50:10;;;;;;;0.60;0.60;;;;;;;23.51;51.01;99188.63;5104743;28;20385;-61
2023/07/21 08:52:39;;;;;;;0.50;0.50;;;;;;;23.49;50.83;99180.03;5106593;28;20036;-60
2023/07/21 08:55:10;;;;;;;0.90;0.85;;;;;;;23.50;50.96;99181.72;5116176;28;20035;-60
2023/07/21 08:57:39;;;;;;;0.47;0.40;;;;;;;23.54;50.80;99188.41;5117650;28;20088;-59
2023/07/21 09:00:10;;;;;;;1.02;0.80;;;;;;;23.52;50.59;99190.28;5111851;27;20500;-60
2023/07/21 09:02:41;;;;;;;0.50;0.50;;;;;;;23.53;50.45;99199.78;5106964;28;20485;-60
2023/07/21 09:05:17;;;;;;;1.00;0.90;;;;;;;23.53;50.30;99197.19;5118188;28;20444;-60
2023/07/21 09:07:47;;;;;;;0.50;0.50;;;;;;;23.55;50.53;99205.75;5117579;28;20400;-59
2023/07/21 09:10:30;;;;;;;0.90;0.70;;;;;;;23.59;50.45;99207.22;5117344;28;20044;-60
2023/07/21 09:12:59;;;;;;;0.50;0.50;;;;;;;23.59;50.33;99207.22;5117002;28;20075;-63
2023/07/21 09:15:28;;;;;;;1.15;1.05;;;;;;;23.56;50.76;99202.22;5111471;28;20040;-59
2023/07/21 09:18:00;;;;;;;0.55;0.55;;;;;;;23.54;50.77;99204.06;5096861;28;20071;-60
2023/07/21 09:20:31;;;;;;;0.95;0.82;;;;;;;23.60;50.99;99197.63;5097181;28;20055;-60
2023/07/21 09:22:59;;;;;;;0.68;0.68;;;;;;;23.65;50.52;99196.44;5096664;28;20097;-60
2023/07/21 09:25:30;;;;;;;0.67;0.67;;;;;;;23.66;50.82;99200.69;5096557;28;20394;-60
2023/07/21 09:28:01;;;;;;;0.80;0.80;;;;;;;23.70;51.11;99199.59;5105199;28;20291;-60
2023/07/21 09:30:30;;;;;;;0.50;0.50;;;;;;;23.76;51.30;99195.75;5116878;28;20047;-59
2023/07/21 09:32:59;;;;;;;0.55;0.55;;;;;;;23.76;51.35;99201.81;5117041;28;20044;-59
2023/07/21 09:35:29;;;;;;;0.52;0.52;;;;;;;23.78;51.16;99201.69;5111722;28;20404;-60
2023/07/21 09:38:00;;;;;;;5.28;1.52;;;;;;;23.81;51.14;99204.97;5094943;28;20060;-59
2023/07/21 09:40:31;;;;;;;0.60;0.60;;;;;;;23.87;51.17;99201.97;5096026;28;20047;-60
2023/07/21 09:43:01;;;;;;;1.38;0.85;;;;;;;23.93;51.64;99188.56;5104285;28;20032;-60
2023/07/21 09:45:31;;;;;;;1.58;0.75;;;;;;;24.01;51.87;99190.69;5111217;28;20130;-59
2023/07/21 09:48:02;;;;;;;1.42;1.02;;;;;;;24.05;51.75;99180.88;5096551;28;20553;-59
2023/07/21 09:50:31;;;;;;;0.70;0.70;;;;;;;24.10;51.84;99177.09;5096048;28;20508;-60
2023/07/21 09:53:04;;;;;;;8.63;0.75;;;;;;;24.15;51.56;99182.00;5095918;28;20093;-60
2023/07/21 09:55:42;;;;;;;0.60;0.60;;;;;;;24.17;51.60;99187.97;5095973;28;20048;-60
2023/07/21 09:58:15;;;;;;;0.82;0.73;;;;;;;24.18;51.61;99168.78;5096069;28;20040;-59
2023/07/21 10:00:45;;;;;;;0.60;0.60;;;;;;;24.21;52.72;99179.84;5096120;28;20062;-60
2023/07/21 10:03:16;;;;;;;0.60;0.60;;;;;;;24.23;51.75;99187.59;5096026;28;20044;-60
2023/07/21 10:05:46;;;;;;;0.50;0.50;;;;;;;24.27;51.73;99178.63;5095670;28;20043;-59
2023/07/21 10:08:28;;;;;;;1.80;1.38;;;;;;;24.35;51.82;99173.75;5103323;28;20126;-60
2023/07/21 10:10:59;;;;;;;1.10;1.02;;;;;;;24.39;51.44;99175.22;5098215;28;20064;-60
2023/07/21 10:13:31;;;;;;;1.05;0.85;;;;;;;24.46;51.47;99173.88;5115985;28;20062;-60
2023/07/21 10:16:01;;;;;;;0.45;0.45;;;;;;;24.51;50.81;99180.47;5116246;28;20043;-60
2023/07/21 10:18:30;;;;;;;1.17;0.93;;;;;;;24.54;50.76;99187.25;5116091;28;20093;-60
2023/07/21 10:21:00;;;;;;;0.70;0.70;;;;;;;24.60;50.23;99184.25;5115901;28;20489;-60
2023/07/21 10:23:34;;;;;;;0.85;0.70;;;;;;;24.68;50.55;99181.97;5114371;28;20048;-60
2023/07/21 10:26:07;;;;;;;0.50;0.50;;;;;;;24.79;49.92;99181.28;5114805;28;20135;-60
2023/07/21 10:28:43;;;;;;;1.65;1.08;;;;;;;24.92;49.91;99172.53;5115707;28;20481;-60
2023/07/21 10:31:32;;;;;;;0.68;0.68;;;;;;;25.00;49.41;99174.63;5116245;27;20088;-60
2023/07/21 10:34:03;;;;;;;0.43;0.40;;;;;;;25.05;49.29;99162.91;5116151;28;20513;-61
2023/07/21 10:36:48;;;;;;;0.88;0.88;;;;;;;25.06;49.11;99163.75;5115462;28;20051;-60
2023/07/21 10:39:20;;;;;;;0.60;0.52;;;;;;;25.05;48.69;99155.06;5113322;28;20101;-60
2023/07/21 10:41:54;;;;;;;0.70;0.70;;;;;;;25.13;48.44;99160.63;5112002;28;20477;-60
2023/07/21 10:44:24;;;;;;;0.90;0.90;;;;;;;25.21;47.99;99149.66;5105267;28;20548;-60
2023/07/21 10:46:53;;;;;;;1.08;0.80;;;;;;;25.19;47.89;99139.28;5094413;28;20042;-60
2023/07/21 10:49:22;;;;;;;0.80;0.80;;;;;;;25.25;48.07;99128.44;5094761;28;20046;-59
2023/07/21 10:51:51;;;;;;;0.65;0.60;;;;;;;25.35;47.67;99130.41;5098984;28;20035;-59
2023/07/21 10:54:20;;;;;;;1.23;1.08;;;;;;;25.42;47.39;99123.78;5115114;28;20032;-61
2023/07/21 10:56:50;;;;;;;0.80;0.60;;;;;;;25.56;47.49;99115.84;5096026;28;20066;-60
2023/07/21 10:59:21;;;;;;;2.95;0.50;;;;;;;25.69;46.84;99106.19;5094813;28;20090;-63
2023/07/21 11:01:53;;;;;;;0.68;0.50;;;;;;;25.77;46.88;99114.34;5102765;28;20044;-60
2023/07/21 11:04:23;;;;;;;0.52;0.52;;;;;;;26.01;46.29;99112.53;5094781;28;20044;-59
2023/07/21 11:06:53;;;;;;;;;;;;;;;26.16;46.24;99106.22;5094141;28;20126;-60
2023/07/21 11:09:22;;;;;;;0.95;0.75;;;;;;;26.12;45.98;99096.94;5094830;28;19920;-59
2023/07/21 11:11:54;;;;;;;0.40;0.40;;;;;;;25.97;46.24;99090.19;5103227;28;20035;-60
2023/07/21 11:14:26;;;;;;;0.60;0.60;;;;;;;25.93;46.40;99092.19;5104147;28;20044;-60
2023/07/21 11:16:57;;;;;;;0.60;0.60;;;;;;;25.90;46.47;99099.41;5094422;28;20086;-60
2023/07/21 11:19:29;;;;;;;0.68;0.57;;;;;;;25.94;46.32;99095.63;5094259;28;20044;-60
2023/07/21 11:21:58;;;;;;;0.52;0.52;;;;;;;26.05;46.44;99103.53;5103825;28;20085;-59
2023/07/21 11:24:30;;;;;;;0.45;0.45;;;;;;;26.13;46.10;99106.44;5114636;28;20051;-60
2023/07/21 11:27:06;;;;;;;0.57;0.57;;;;;;;26.06;45.87;99107.00;5115238;28;20044;-60
2023/07/21 11:29:42;;;;;;;0.73;0.68;;;;;;;25.94;46.22;99106.94;5113544;28;20046;-61
2023/07/21 11:32:20;;;;;;;0.47;0.47;;;;;;;25.93;46.74;99104.44;5104027;28;20549;-61
2023/07/21 11:34:56;;;;;;;1.20;0.88;;;;;;;25.90;46.51;99104.66;5095097;28;20036;-60
2023/07/21 11:37:35;;;;;;;0.82;0.77;;;;;;;25.93;46.94;99110.50;5106716;27;20088;-60
2023/07/21 11:40:08;;;;;;;0.45;0.45;;;;;;;25.87;46.90;99110.09;5101113;28;20501;-60
2023/07/21 11:42:45;;;;;;;1.15;0.98;;;;;;;25.81;47.16;99110.56;5094320;28;20044;-60
2023/07/21 11:45:35;;;;;;;0.95;0.93;;;;;;;25.78;47.07;99121.22;5094016;28;20052;-61
2023/07/21 11:48:15;;;;;;;0.98;0.70;;;;;;;25.76;47.05;99112.66;5096556;28;20566;-61
2023/07/21 11:50:51;;;;;;;0.57;0.57;;;;;;;25.68;47.07;99120.22;5103216;28;20508;-60
2023/07/21 11:53:20;;;;;;;1.38;0.88;;;;;;;25.69;47.47;99116.66;5094077;28;20032;-60
2023/07/21 11:55:49;;;;;;;0.75;0.73;;;;;;;25.71;47.52;99126.06;5092855;28;20036;-63